Time;durP1;ratioP1;P1;durP2;ratioP2;P2;SDS_P1;SDS_P2;PMS_P1;PMS_P2;Temp;Humidity;BMP_temperature;BMP_pressure;BME280_temperature;BME280_humidity;BME280_pressure;Samples;Min_cycle;Max_cycle;Signal;HPM_P1;HPM_P2
2021/12/22 00:00:55;;;;;;;11.40;7.50;;;;;;;8.07;35.23;100043.09;4317788;33;33827;-88
2021/12/22 00:03:23;;;;;;;10.98;6.75;;;;;;;7.59;35.44;100041.31;4329442;33;33683;-86
2021/12/22 00:05:52;;;;;;;13.13;6.43;;;;;;;7.89;35.05;100040.72;4322866;33;33764;-88
2021/12/22 00:08:20;;;;;;;11.80;6.85;;;;;;;7.78;35.37;100041.19;4330856;33;34127;-86
2021/12/22 00:10:49;;;;;;;11.85;7.05;;;;;;;7.80;35.20;100043.81;4320140;33;34612;-81
2021/12/22 00:13:16;;;;;;;12.55;7.05;;;;;;;7.72;35.41;100046.12;4316280;33;33411;-87
2021/12/22 00:15:44;;;;;;;11.12;6.90;;;;;;;7.57;35.49;100045.53;4319328;33;34552;-80
2021/12/22 00:18:12;;;;;;;11.77;6.37;;;;;;;7.51;35.79;100045.31;4329531;33;35157;-87
2021/12/22 00:20:40;;;;;;;11.75;6.65;;;;;;;7.40;36.10;100051.75;4316736;33;33895;-82
2021/12/22 00:23:07;;;;;;;12.90;7.07;;;;;;;7.41;36.10;100059.53;4330326;33;32911;-82
2021/12/22 00:25:35;;;;;;;15.00;7.25;;;;;;;7.71;35.66;100059.84;4330457;33;34819;-83
2021/12/22 00:28:03;;;;;;;13.82;7.15;;;;;;;7.35;35.98;100061.88;4331169;33;33925;-83
2021/12/22 00:30:30;;;;;;;12.57;7.10;;;;;;;7.34;36.01;100073.00;4330757;33;33795;-83
2021/12/22 00:33:04;;;;;;;11.12;6.70;;;;;;;7.65;35.48;100077.69;4330361;33;33482;-84
2021/12/22 00:35:39;;;;;;;22.33;10.98;;;;;;;6.51;36.75;100084.13;4330811;33;33722;-81
2021/12/22 00:38:07;;;;;;;20.20;11.85;;;;;;;4.84;41.45;100112.25;4331075;33;35186;-82
2021/12/22 00:40:35;;;;;;;21.15;11.38;;;;;;;5.60;39.69;100095.44;4330669;33;34050;-84
2021/12/22 00:43:02;;;;;;;16.50;10.32;;;;;;;6.44;38.49;100097.56;4316930;33;33526;-84
2021/12/22 00:45:33;;;;;;;17.48;9.38;;;;;;;6.65;37.72;100095.91;4331096;33;33877;-85
2021/12/22 00:48:07;;;;;;;17.62;10.45;;;;;;;6.61;37.92;100100.88;4317729;33;35008;-87
2021/12/22 00:50:36;;;;;;;21.58;12.88;;;;;;;7.13;37.07;100105.69;4330343;33;34904;-85
2021/12/22 00:53:04;;;;;;;19.80;11.40;;;;;;;6.60;37.79;100096.56;4317324;33;34475;-84
2021/12/22 00:55:32;;;;;;;21.98;11.93;;;;;;;7.20;37.09;100095.69;4330665;33;34023;-84
2021/12/22 00:58:00;;;;;;;20.40;11.98;;;;;;;7.07;37.06;100102.00;4329466;33;33978;-83
2021/12/22 01:00:27;;;;;;;22.25;12.93;;;;;;;7.13;37.00;100103.97;4328056;33;85253;-82
2021/12/22 01:02:55;;;;;;;22.45;13.70;;;;;;;7.52;36.38;100103.81;4330194;33;33791;-87
2021/12/22 01:05:23;;;;;;;23.15;13.02;;;;;;;7.36;36.53;100112.66;4330689;33;33719;-82
2021/12/22 01:07:51;;;;;;;22.23;12.77;;;;;;;7.42;36.51;100112.88;4330435;33;34284;-82
2021/12/22 01:10:21;;;;;;;20.55;12.02;;;;;;;7.42;36.58;100125.78;4330172;33;34189;-81
2021/12/22 01:12:52;;;;;;;19.80;11.82;;;;;;;7.40;36.63;100123.97;4329670;33;34293;-85
2021/12/22 01:15:20;;;;;;;19.83;12.48;;;;;;;7.79;35.87;100115.22;4315815;33;33677;-83
2021/12/22 01:17:50;;;;;;;20.10;12.63;;;;;;;7.67;35.93;100117.34;4329961;33;35703;-83
2021/12/22 01:20:30;;;;;;;19.60;13.00;;;;;;;7.30;36.73;100115.84;4317262;33;34948;-84
2021/12/22 01:23:05;;;;;;;21.25;12.70;;;;;;;7.57;36.30;100116.06;4329329;33;34631;-84
2021/12/22 01:25:38;;;;;;;20.80;13.13;;;;;;;7.65;36.42;100116.41;4330054;33;34681;-83
2021/12/22 01:28:05;;;;;;;22.42;12.07;;;;;;;7.52;36.61;100112.44;4330140;33;34231;-83
2021/12/22 01:30:33;;;;;;;21.50;13.10;;;;;;;7.48;36.64;100112.25;4328987;33;33860;-84
2021/12/22 01:33:03;;;;;;;17.95;11.38;;;;;;;7.44;36.80;100112.97;4329490;33;33422;-83
2021/12/22 01:35:32;;;;;;;18.65;12.57;;;;;;;7.82;36.01;100106.72;4330044;33;33998;-84
2021/12/22 01:38:01;;;;;;;19.65;12.43;;;;;;;7.78;36.06;100112.59;4328000;33;33918;-83
2021/12/22 01:40:29;;;;;;;18.90;13.32;;;;;;;7.79;36.18;100120.38;4329916;33;35083;-84
2021/12/22 01:42:58;;;;;;;21.98;13.52;;;;;;;7.90;35.74;100120.81;4315923;33;33542;-84
2021/12/22 01:45:31;;;;;;;21.80;13.65;;;;;;;7.75;35.88;100121.09;4329045;33;34058;-84
2021/12/22 01:50:47;;;;;;;17.42;11.23;;;;;;;7.51;36.14;100123.59;4330148;33;34341;-84
2021/12/22 01:53:20;;;;;;;22.55;12.73;;;;;;;7.64;36.00;100114.63;4314506;33;34117;-83
2021/12/22 01:56:21;;;;;;;17.62;11.73;;;;;;;7.65;36.11;100116.41;4329961;33;33770;-87
2021/12/22 01:58:52;;;;;;;18.70;11.77;;;;;;;7.03;36.99;100114.72;4321166;33;34263;-83
2021/12/22 02:01:20;;;;;;;15.40;10.00;;;;;;;7.37;36.53;100121.28;4329545;33;34997;-85
2021/12/22 02:03:50;;;;;;;18.67;11.77;;;;;;;6.74;37.36;100119.53;4328960;33;34352;-83
2021/12/22 02:06:19;;;;;;;19.70;11.27;;;;;;;6.41;38.21;100128.34;4329642;33;34873;-83
2021/12/22 02:08:47;;;;;;;17.58;10.45;;;;;;;6.49;38.08;100121.84;4329287;33;33927;-83
2021/12/22 02:11:16;;;;;;;19.85;11.05;;;;;;;5.56;39.87;100137.25;4329363;33;34019;-82
2021/12/22 02:13:48;;;;;;;18.37;11.50;;;;;;;5.78;39.71;100135.72;4329233;33;34646;-83
2021/12/22 02:16:19;;;;;;;16.98;11.12;;;;;;;6.02;39.09;100121.47;4329200;33;33613;-83
2021/12/22 02:18:50;;;;;;;18.35;10.68;;;;;;;6.44;38.48;100125.88;4316235;33;34613;-84
2021/12/22 02:21:19;;;;;;;16.05;10.52;;;;;;;7.01;37.57;100121.53;4315669;33;35039;-82
2021/12/22 02:23:46;;;;;;;16.05;10.02;;;;;;;6.82;37.30;100122.44;4329198;33;33679;-82
2021/12/22 02:29:05;;;;;;;19.60;10.00;;;;;;;6.60;37.96;100128.34;4329199;33;33950;-84
2021/12/22 02:31:46;;;;;;;15.93;9.57;;;;;;;6.11;39.07;100114.97;4328974;33;33896;-86
2021/12/22 02:34:15;;;;;;;16.35;9.20;;;;;;;4.66;41.15;100125.06;4329429;33;34539;-84
2021/12/22 02:36:43;;;;;;;15.77;9.13;;;;;;;5.71;39.64;100118.22;4328431;33;34106;-87
2021/12/22 02:39:12;;;;;;;14.68;8.68;;;;;;;5.13;40.60;100126.56;4315982;33;34272;-88
2021/12/22 02:41:40;;;;;;;12.82;7.95;;;;;;;4.77;41.56;100120.44;4329635;33;33852;-87
2021/12/22 02:44:10;;;;;;;13.32;7.78;;;;;;;5.48;40.02;100127.41;4330638;33;33613;-84
2021/12/22 02:46:39;;;;;;;12.75;7.45;;;;;;;5.40;39.92;100129.63;4319742;33;35036;-84
2021/12/22 02:49:08;;;;;;;12.60;7.75;;;;;;;5.65;39.44;100123.97;4330742;33;35158;-84
2021/12/22 02:51:36;;;;;;;14.02;7.90;;;;;;;5.59;39.27;100121.09;4330981;33;35398;-84
2021/12/22 02:54:22;;;;;;;14.93;8.55;;;;;;;5.76;39.25;100122.78;4331257;33;33402;-83
2021/12/22 02:56:55;;;;;;;14.57;7.97;;;;;;;4.81;40.49;100131.00;4330890;33;34101;-88
2021/12/22 02:59:43;;;;;;;13.05;7.78;;;;;;;5.87;38.97;100123.25;4330241;33;34034;-84
2021/12/22 03:04:45;;;;;;;16.50;8.10;;;;;;;6.51;37.98;100128.81;4330886;33;34582;-84
2021/12/22 03:07:16;;;;;;;13.55;8.20;;;;;;;6.40;38.07;100130.00;4318548;33;33999;-84
2021/12/22 03:09:44;;;;;;;14.18;8.27;;;;;;;7.00;36.99;100130.06;4330861;33;35148;-84
2021/12/22 03:12:14;;;;;;;15.35;8.07;;;;;;;7.62;36.29;100136.94;4331074;33;34308;-82
2021/12/22 03:14:41;;;;;;;11.98;7.68;;;;;;;7.70;36.29;100139.81;4330294;33;33501;-83
2021/12/22 03:17:09;;;;;;;11.38;7.32;;;;;;;7.34;36.20;100144.34;4331167;33;33753;-83
2021/12/22 03:19:36;;;;;;;11.88;7.90;;;;;;;7.11;36.18;100141.69;4317437;33;33940;-88
2021/12/22 03:22:10;;;;;;;11.12;7.50;;;;;;;7.48;35.39;100141.53;4305525;33;33703;-83
2021/12/22 03:24:40;;;;;;;13.57;8.63;;;;;;;7.80;35.03;100141.91;4330779;33;34627;-88
2021/12/22 03:27:08;;;;;;;13.10;8.15;;;;;;;7.75;35.39;100133.13;4317963;33;34887;-87
2021/12/22 03:29:38;;;;;;;12.37;7.50;;;;;;;8.13;34.98;100131.13;4330278;33;32966;-83
2021/12/22 03:32:09;;;;;;;12.77;7.97;;;;;;;8.21;35.14;100129.72;4330659;33;35169;-83
2021/12/22 03:34:38;;;;;;;14.35;8.02;;;;;;;8.39;34.74;100133.03;4330642;33;33387;-84
2021/12/22 03:37:08;;;;;;;11.02;7.43;;;;;;;8.35;34.71;100135.41;4317290;33;34433;-84
2021/12/22 03:39:36;;;;;;;12.15;8.43;;;;;;;8.35;34.66;100146.63;4330964;33;34190;-84
2021/12/22 03:42:06;;;;;;;11.50;7.60;;;;;;;7.65;34.68;100146.47;4330829;33;34343;-83
2021/12/22 03:44:34;;;;;;;13.88;7.82;;;;;;;7.67;34.74;100140.56;4331202;33;33216;-85
2021/12/22 03:47:02;;;;;;;11.35;7.57;;;;;;;8.34;34.03;100144.00;4330964;33;34566;-83
2021/12/22 03:49:30;;;;;;;12.27;7.47;;;;;;;8.37;34.20;100146.66;4330186;33;34318;-87
2021/12/22 03:51:57;;;;;;;13.90;8.05;;;;;;;8.08;34.41;100143.88;4330985;33;35069;-83
2021/12/22 03:54:25;;;;;;;14.10;8.65;;;;;;;8.55;34.01;100151.69;4316863;33;33361;-83
2021/12/22 03:56:52;;;;;;;13.38;7.22;;;;;;;8.80;33.79;100149.16;4330920;33;34036;-83
2021/12/22 03:59:20;;;;;;;12.25;7.47;;;;;;;8.51;34.13;100148.09;4330833;33;33978;-83
2021/12/22 04:01:48;;;;;;;11.60;7.35;;;;;;;8.37;34.30;100144.09;4316871;33;34005;-87
2021/12/22 04:04:18;;;;;;;15.98;7.97;;;;;;;8.66;33.95;100143.50;4330600;33;33703;-80
2021/12/22 04:06:47;;;;;;;11.02;7.40;;;;;;;8.75;33.90;100148.09;4317470;33;33919;-83
2021/12/22 04:09:15;;;;;;;10.52;6.60;;;;;;;8.93;33.65;100150.47;4330895;33;34023;-83
2021/12/22 04:11:44;;;;;;;12.13;7.60;;;;;;;8.73;33.78;100148.06;4330374;33;35049;-83
2021/12/22 04:14:12;;;;;;;13.65;8.32;;;;;;;8.73;34.13;100157.53;4331022;33;32951;-84
2021/12/22 04:16:39;;;;;;;12.25;7.80;;;;;;;8.66;34.06;100152.94;4318070;33;35214;-84
2021/12/22 04:19:07;;;;;;;11.40;7.47;;;;;;;8.52;34.16;100161.09;4330624;33;33686;-84
2021/12/22 04:21:34;;;;;;;10.20;6.45;;;;;;;8.46;34.18;100163.44;4330552;33;34927;-84
2021/12/22 04:24:02;;;;;;;12.10;6.90;;;;;;;8.33;34.38;100162.87;4330765;33;34005;-82
2021/12/22 04:26:32;;;;;;;11.20;7.20;;;;;;;8.07;34.68;100173.13;4317573;33;34106;-84
2021/12/22 04:29:00;;;;;;;10.48;6.97;;;;;;;8.08;34.96;100168.84;4330645;33;35189;-83
2021/12/22 04:31:27;;;;;;;11.68;6.90;;;;;;;8.46;34.56;100172.91;4330390;33;33985;-83
2021/12/22 04:33:55;;;;;;;9.45;6.82;;;;;;;8.39;34.58;100173.50;4330647;33;34035;-82
2021/12/22 04:36:22;;;;;;;11.77;6.72;;;;;;;8.39;34.65;100174.38;4330950;33;34914;-82
2021/12/22 04:38:50;;;;;;;11.57;6.72;;;;;;;8.29;34.63;100170.50;4330345;33;33884;-82
2021/12/22 04:41:18;;;;;;;10.60;7.32;;;;;;;8.08;35.03;100180.03;4330724;33;34356;-83
2021/12/22 04:43:45;;;;;;;11.10;7.55;;;;;;;8.43;34.56;100183.13;4330552;33;33436;-81
2021/12/22 04:46:12;;;;;;;10.70;6.82;;;;;;;8.27;34.92;100179.94;4330746;33;34735;-85
2021/12/22 04:48:40;;;;;;;11.30;6.90;;;;;;;7.83;35.42;100175.59;4330263;33;32618;-83
2021/12/22 04:51:14;;;;;;;11.50;7.37;;;;;;;8.31;34.67;100167.13;4330810;33;33478;-83
2021/12/22 04:53:57;;;;;;;11.80;7.62;;;;;;;8.00;35.20;100171.12;4329704;33;34711;-83
2021/12/22 04:56:24;;;;;;;10.93;7.75;;;;;;;8.46;34.66;100162.56;4329930;33;34766;-83
2021/12/22 04:58:52;;;;;;;11.52;7.70;;;;;;;8.44;34.64;100164.19;4330345;33;33917;-83
2021/12/22 05:01:19;;;;;;;11.70;6.87;;;;;;;8.60;34.53;100171.72;4330343;33;34137;-82
2021/12/22 05:03:47;;;;;;;11.25;7.03;;;;;;;9.07;33.73;100164.75;4329884;33;34365;-86
2021/12/22 05:06:14;;;;;;;11.82;7.97;;;;;;;8.29;34.27;100175.69;4329894;33;34754;-85
2021/12/22 05:08:42;;;;;;;11.63;7.68;;;;;;;7.95;34.80;100173.50;4330505;33;33809;-82
2021/12/22 05:11:09;;;;;;;12.02;7.53;;;;;;;7.89;35.06;100173.28;4330643;33;33705;-83
2021/12/22 05:13:40;;;;;;;12.65;7.53;;;;;;;8.50;34.47;100169.59;4329866;33;34639;-83
2021/12/22 05:16:15;;;;;;;11.52;7.22;;;;;;;8.10;35.12;100177.50;4330077;33;34013;-83
2021/12/22 05:18:51;;;;;;;15.30;8.55;;;;;;;7.78;35.62;100171.97;4329953;33;34176;-86
2021/12/22 05:21:21;;;;;;;13.00;7.72;;;;;;;8.15;34.78;100186.34;4322937;33;33552;-85
2021/12/22 05:23:49;;;;;;;12.88;8.50;;;;;;;8.14;34.86;100181.97;4330349;33;32935;-83
2021/12/22 05:26:17;;;;;;;12.70;7.75;;;;;;;8.10;35.00;100173.22;4316858;33;34721;-83
2021/12/22 05:28:44;;;;;;;11.55;7.40;;;;;;;8.26;34.78;100180.75;4329728;33;34147;-86
2021/12/22 05:31:12;;;;;;;12.05;7.78;;;;;;;8.57;34.68;100181.94;4316601;33;34011;-82
2021/12/22 05:33:40;;;;;;;13.60;8.27;;;;;;;8.63;34.51;100186.44;4330350;33;33517;-82
2021/12/22 05:36:08;;;;;;;13.43;8.27;;;;;;;8.94;33.88;100184.16;4329579;33;33938;-83
2021/12/22 05:38:36;;;;;;;11.88;7.78;;;;;;;8.52;34.50;100186.03;4329638;33;34875;-83
2021/12/22 05:41:04;;;;;;;13.68;8.23;;;;;;;8.47;34.57;100187.56;4329574;33;34208;-83
2021/12/22 05:43:31;;;;;;;12.77;7.93;;;;;;;8.60;34.34;100192.41;4329451;33;33129;-82
2021/12/22 05:45:59;;;;;;;12.95;8.23;;;;;;;8.62;34.13;100200.19;4316392;33;34343;-83
2021/12/22 05:48:27;;;;;;;14.35;9.27;;;;;;;8.76;33.94;100199.00;4316296;33;34899;-81
2021/12/22 05:50:58;;;;;;;13.20;7.97;;;;;;;8.52;34.21;100193.78;4329759;33;34181;-82
2021/12/22 05:53:25;;;;;;;14.13;8.50;;;;;;;8.85;33.93;100203.63;4329600;33;34525;-83
2021/12/22 05:55:54;;;;;;;16.83;9.70;;;;;;;9.26;33.33;100205.09;4329703;33;34303;-81
2021/12/22 05:58:22;;;;;;;16.35;9.43;;;;;;;8.61;34.01;100199.31;4315737;33;34127;-84
2021/12/22 06:00:50;;;;;;;14.52;9.68;;;;;;;8.34;34.50;100206.00;4328444;33;34089;-83
2021/12/22 06:03:18;;;;;;;15.70;8.98;;;;;;;8.39;34.44;100207.09;4316445;33;34174;-83
2021/12/22 06:05:46;;;;;;;16.00;10.00;;;;;;;8.65;34.22;100208.94;4316097;33;34799;-82
2021/12/22 06:08:13;;;;;;;16.62;9.80;;;;;;;8.70;34.06;100207.41;4315958;33;33707;-83
2021/12/22 06:10:41;;;;;;;15.93;9.75;;;;;;;8.20;34.86;100210.63;4329380;33;34273;-84
2021/12/22 06:13:10;;;;;;;16.40;10.25;;;;;;;8.32;34.45;100226.59;4328846;33;32446;-85
2021/12/22 06:15:39;;;;;;;18.20;10.45;;;;;;;8.01;34.66;100224.53;4329325;33;34733;-84
2021/12/22 06:18:08;;;;;;;15.82;10.25;;;;;;;7.64;35.17;100237.63;4331729;33;34808;-82
2021/12/22 06:20:36;;;;;;;16.48;9.85;;;;;;;8.01;34.91;100230.56;4331332;33;33902;-83
2021/12/22 06:23:04;;;;;;;20.85;10.25;;;;;;;8.64;33.91;100229.59;4317936;33;34412;-83
2021/12/22 06:25:35;;;;;;;13.93;10.00;;;;;;;7.96;34.86;100246.72;4318336;33;34657;-83
2021/12/22 06:28:04;;;;;;;16.37;10.18;;;;;;;7.56;35.49;100235.59;4331166;33;34154;-82
2021/12/22 06:30:31;;;;;;;16.50;10.15;;;;;;;7.64;35.51;100248.84;4331415;33;33863;-84
2021/12/22 06:32:59;;;;;;;15.82;9.55;;;;;;;8.46;34.05;100240.09;4331595;33;34643;-84
2021/12/22 06:35:27;;;;;;;17.12;10.10;;;;;;;8.34;34.36;100250.81;4331542;33;34941;-83
2021/12/22 06:37:54;;;;;;;17.05;10.30;;;;;;;8.17;34.75;100242.38;4330696;33;34102;-83
2021/12/22 06:40:22;;;;;;;14.45;9.55;;;;;;;8.31;34.85;100250.69;4331389;33;34933;-83
2021/12/22 06:42:50;;;;;;;17.27;9.40;;;;;;;8.51;34.71;100254.94;4331162;33;33463;-82
2021/12/22 06:45:17;;;;;;;13.93;8.63;;;;;;;8.32;34.89;100262.78;4331227;33;34348;-83
2021/12/22 06:47:45;;;;;;;15.90;9.57;;;;;;;8.60;34.18;100271.63;4331140;33;34269;-82
2021/12/22 06:50:12;;;;;;;17.17;9.35;;;;;;;8.00;35.18;100274.41;4331060;33;33943;-82
2021/12/22 06:52:39;;;;;;;14.02;8.98;;;;;;;7.85;35.50;100271.22;4328724;33;33705;-82
2021/12/22 06:55:07;;;;;;;14.20;8.90;;;;;;;8.19;35.10;100279.50;4330640;33;33951;-83
2021/12/22 06:57:35;;;;;;;16.37;9.73;;;;;;;8.05;35.39;100281.53;4331109;33;34167;-83
2021/12/22 07:00:08;;;;;;;14.48;10.18;;;;;;;8.14;35.42;100275.81;4317604;33;34312;-82
2021/12/22 07:02:38;;;;;;;16.62;9.73;;;;;;;8.32;35.19;100280.84;4331257;33;33386;-83
2021/12/22 07:05:17;;;;;;;14.73;10.02;;;;;;;8.43;35.12;100276.16;4330612;33;33899;-83
2021/12/22 07:07:44;;;;;;;13.32;9.15;;;;;;;8.62;34.69;100275.16;4330568;33;35102;-83
2021/12/22 07:10:12;;;;;;;14.15;9.38;;;;;;;8.77;34.58;100284.37;4331478;33;35051;-83
2021/12/22 07:12:41;;;;;;;18.77;9.50;;;;;;;8.68;34.61;100286.62;4331066;33;33244;-83
2021/12/22 07:15:14;;;;;;;15.75;9.93;;;;;;;8.85;34.34;100283.78;4317822;33;33680;-83
2021/12/22 07:17:43;;;;;;;14.38;9.30;;;;;;;8.80;34.32;100280.16;4330991;33;34158;-86
2021/12/22 07:20:11;;;;;;;12.63;9.00;;;;;;;8.97;34.35;100286.81;4331079;33;35129;-82
2021/12/22 07:22:38;;;;;;;13.35;9.18;;;;;;;9.13;33.80;100278.81;4330620;33;33639;-81
2021/12/22 07:25:08;;;;;;;15.77;9.55;;;;;;;9.12;33.81;100286.50;4330852;33;33419;-82
2021/12/22 07:27:36;;;;;;;14.90;8.65;;;;;;;8.28;34.78;100287.59;4314100;33;33958;-83
2021/12/22 07:30:04;;;;;;;17.27;8.90;;;;;;;8.13;34.88;100283.53;4326480;33;34298;-84
2021/12/22 07:32:32;;;;;;;13.60;8.38;;;;;;;8.42;34.72;100284.72;4326271;33;33306;-83
2021/12/22 07:35:07;;;;;;;14.30;9.25;;;;;;;8.73;34.49;100287.66;4329302;33;33729;-83
2021/12/22 07:37:40;;;;;;;13.90;8.77;;;;;;;8.65;34.56;100285.63;4319804;33;34145;-84
2021/12/22 07:40:13;;;;;;;15.75;9.82;;;;;;;8.03;35.23;100292.59;4327966;33;34861;-84
2021/12/22 07:42:41;;;;;;;15.82;9.38;;;;;;;7.50;35.22;100299.88;4327671;33;34623;-85
2021/12/22 07:45:11;;;;;;;15.45;9.80;;;;;;;7.98;34.61;100288.94;4313463;33;33764;-84
2021/12/22 07:47:39;;;;;;;15.85;9.23;;;;;;;7.88;34.89;100291.97;4314565;33;34108;-83
2021/12/22 07:50:07;;;;;;;16.92;10.48;;;;;;;8.17;34.90;100301.78;4329213;33;34340;-84
2021/12/22 07:52:35;;;;;;;15.82;9.90;;;;;;;8.48;33.66;100306.50;4330735;33;34567;-82
2021/12/22 07:55:03;;;;;;;15.93;10.40;;;;;;;8.48;34.31;100315.97;4330750;33;34756;-87
2021/12/22 07:57:31;;;;;;;17.80;11.73;;;;;;;8.21;34.56;100315.72;4317124;33;34724;-85
2021/12/22 07:59:59;;;;;;;20.33;12.32;;;;;;;7.41;35.57;100317.53;4317581;33;34727;-83
2021/12/22 08:02:26;;;;;;;20.08;11.63;;;;;;;7.25;36.27;100326.28;4330169;33;34491;-84
2021/12/22 08:04:54;;;;;;;19.25;12.05;;;;;;;7.03;36.46;100326.13;4330775;33;34741;-84
2021/12/22 08:07:21;;;;;;;18.02;11.20;;;;;;;5.44;38.90;100331.25;4330617;33;34299;-83
2021/12/22 08:09:49;;;;;;;18.60;10.82;;;;;;;6.55;37.28;100335.94;4330284;33;34927;-85
2021/12/22 08:12:16;;;;;;;18.42;11.27;;;;;;;6.94;37.09;100333.47;4330726;33;34311;-87
2021/12/22 08:14:44;;;;;;;18.02;11.50;;;;;;;6.89;36.91;100330.66;4325939;33;32574;-82
2021/12/22 08:17:13;;;;;;;15.75;9.23;;;;;;;6.16;37.66;100342.63;4329946;33;34936;-88
2021/12/22 08:19:41;;;;;;;16.27;9.70;;;;;;;7.01;36.01;100332.94;4325595;33;34781;-82
2021/12/22 08:22:09;;;;;;;15.32;9.25;;;;;;;5.21;39.15;100348.03;4322413;33;34537;-86
2021/12/22 08:24:37;;;;;;;16.37;9.13;;;;;;;5.84;38.23;100345.34;4322123;33;33471;-87
2021/12/22 08:27:04;;;;;;;15.65;10.13;;;;;;;4.26;40.31;100345.41;4324662;33;33790;-87
2021/12/22 08:29:32;;;;;;;18.55;10.90;;;;;;;4.82;40.63;100342.53;4323766;33;33992;-83
2021/12/22 08:32:00;;;;;;;19.17;11.68;;;;;;;5.75;39.28;100346.56;4328351;33;35426;-81
2021/12/22 08:34:35;;;;;;;18.30;10.52;;;;;;;7.07;36.96;100346.97;4316701;33;33748;-82
2021/12/22 08:39:50;;;;;;;17.75;11.20;;;;;;;7.43;35.42;100344.28;4326120;33;35148;-82
2021/12/22 08:42:18;;;;;;;14.25;8.82;;;;;;;7.98;34.43;100343.19;4329408;33;33886;-86
2021/12/22 08:44:45;;;;;;;11.75;7.47;;;;;;;6.16;36.13;100364.09;4324889;33;34328;-83
2021/12/22 08:47:14;;;;;;;15.60;7.97;;;;;;;6.76;35.45;100365.28;4329082;33;35159;-82
2021/12/22 08:49:42;;;;;;;17.02;8.73;;;;;;;6.40;35.79;100369.56;4314204;33;34123;-83
2021/12/22 08:52:10;;;;;;;13.50;8.52;;;;;;;6.53;35.95;100363.31;4329585;33;33649;-82
2021/12/22 08:54:38;;;;;;;26.55;9.57;;;;;;;7.49;34.57;100359.13;4304936;33;34983;-82
2021/12/22 08:57:06;;;;;;;20.23;8.98;;;;;;;7.31;33.87;100361.78;4330556;33;33441;-82
2021/12/22 08:59:34;;;;;;;14.52;8.15;;;;;;;8.21;33.01;100357.94;4329532;33;33902;-82
2021/12/22 09:02:03;;;;;;;17.35;9.00;;;;;;;7.49;33.49;100359.13;4328977;33;34179;-84
2021/12/22 09:04:31;;;;;;;14.70;8.77;;;;;;;7.63;32.89;100360.62;4330199;33;33767;-86
2021/12/22 09:06:58;;;;;;;12.75;7.25;;;;;;;7.47;33.58;100364.25;4329587;33;34262;-86
2021/12/22 09:09:26;;;;;;;15.45;8.38;;;;;;;5.60;34.68;100362.09;4329209;33;33721;-81
2021/12/22 09:11:54;;;;;;;17.90;8.55;;;;;;;7.27;33.01;100355.63;4324705;33;32506;-82
2021/12/22 09:14:24;;;;;;;13.20;7.95;;;;;;;7.55;33.03;100355.13;4329845;33;33962;-81
2021/12/22 09:16:53;;;;;;;16.50;8.32;;;;;;;7.41;33.13;100352.75;4329217;33;34189;-80
2021/12/22 09:19:20;;;;;;;14.98;8.52;;;;;;;7.27;32.55;100353.06;4329838;33;34089;-80
2021/12/22 09:21:48;;;;;;;20.52;12.30;;;;;;;7.16;33.43;100355.94;4329513;33;33831;-81
2021/12/22 09:24:15;;;;;;;15.88;9.00;;;;;;;6.82;33.44;100357.88;4329302;33;33627;-81
2021/12/22 09:26:43;;;;;;;21.77;12.45;;;;;;;6.36;34.14;100361.63;4329566;33;34182;-85
2021/12/22 09:29:10;;;;;;;28.65;15.90;;;;;;;5.81;34.55;100363.19;4325492;33;34193;-83
2021/12/22 09:31:38;;;;;;;14.38;9.30;;;;;;;6.23;34.47;100371.31;4311925;33;33625;-81
2021/12/22 09:34:06;;;;;;;18.05;10.88;;;;;;;5.24;36.38;100373.91;4329141;33;34760;-82
2021/12/22 09:36:34;;;;;;;20.70;10.20;;;;;;;5.79;36.35;100372.50;4328304;33;33983;-81
2021/12/22 09:39:03;;;;;;;18.12;10.13;;;;;;;5.29;36.79;100373.34;4323468;33;34874;-81
2021/12/22 09:41:33;;;;;;;15.27;9.43;;;;;;;5.44;36.59;100374.97;4310986;33;33392;-83
2021/12/22 09:44:01;;;;;;;21.80;11.85;;;;;;;6.98;33.39;100363.72;4310585;33;33845;-80
2021/12/22 09:46:29;;;;;;;16.92;9.88;;;;;;;7.24;33.78;100365.81;4324381;33;34085;-81
2021/12/22 09:49:18;;;;;;;16.70;9.57;;;;;;;7.33;33.37;100357.59;4306083;33;34932;-82
2021/12/22 09:54:33;;;;;;;18.50;10.95;;;;;;;8.05;32.32;100353.84;4322246;33;33988;-81
2021/12/22 09:57:00;;;;;;;16.27;10.77;;;;;;;7.83;32.44;100352.87;4328531;33;34933;-82
2021/12/22 09:59:28;;;;;;;18.95;11.68;;;;;;;7.64;32.73;100352.06;4324748;33;34046;-80
2021/12/22 10:01:57;;;;;;;18.77;10.90;;;;;;;7.74;32.46;100353.34;4308079;33;33598;-82
2021/12/22 10:04:26;;;;;;;19.85;11.30;;;;;;;7.91;32.64;100347.19;4291682;33;34542;-81
2021/12/22 10:06:53;;;;;;;22.92;12.23;;;;;;;8.34;32.36;100353.28;4314556;33;34886;-81
2021/12/22 10:09:22;;;;;;;19.17;11.85;;;;;;;7.92;32.02;100348.09;4316136;33;34805;-81
2021/12/22 10:11:51;;;;;;;18.50;10.70;;;;;;;8.44;31.31;100351.12;4308163;33;33699;-82
2021/12/22 10:14:36;;;;;;;18.58;11.55;;;;;;;6.48;33.54;100357.97;4300266;33;33730;-82
2021/12/22 10:17:05;;;;;;;19.87;12.27;;;;;;;7.48;32.94;100354.81;4322955;33;34989;-81
2021/12/22 10:19:32;;;;;;;17.55;11.07;;;;;;;8.14;32.74;100345.56;4325120;33;34284;-81
2021/12/22 10:22:02;;;;;;;17.08;10.75;;;;;;;8.42;31.73;100346.75;4325691;33;33621;-81
2021/12/22 10:24:39;;;;;;;18.35;11.90;;;;;;;8.75;31.46;100340.34;4324040;33;33938;-84
2021/12/22 10:27:20;;;;;;;18.95;12.15;;;;;;;8.51;31.28;100344.53;4325671;33;33984;-83
2021/12/22 10:29:48;;;;;;;19.27;12.90;;;;;;;8.42;32.27;100344.16;4307094;33;33876;-83
2021/12/22 10:32:17;;;;;;;19.20;11.82;;;;;;;8.10;32.01;100335.06;4313830;33;33345;-82
2021/12/22 10:35:03;;;;;;;22.40;12.13;;;;;;;6.38;34.25;100354.88;4319596;33;33770;-82
2021/12/22 10:37:36;;;;;;;21.95;13.48;;;;;;;7.98;33.16;100336.31;4325275;33;34195;-79
2021/12/22 10:40:24;;;;;;;19.55;13.02;;;;;;;8.00;32.57;100338.97;4306083;33;33782;-83
2021/12/22 10:42:52;;;;;;;19.42;11.30;;;;;;;8.47;32.50;100334.88;4328472;33;34073;-79
2021/12/22 10:45:22;;;;;;;17.40;11.73;;;;;;;7.88;32.70;100335.84;4314964;33;34567;-79
2021/12/22 10:50:56;;;;;;;20.48;12.95;;;;;;;8.13;33.34;100336.06;4325405;33;35608;-83
2021/12/22 10:53:24;;;;;;;17.80;12.52;;;;;;;6.59;34.93;100335.25;4312065;33;33100;-80
2021/12/22 10:55:56;;;;;;;24.63;12.68;;;;;;;7.83;33.16;100332.22;4323150;33;35147;-80
2021/12/22 10:58:28;;;;;;;27.08;12.95;;;;;;;7.04;34.33;100325.31;4321580;33;33771;-86
2021/12/22 11:01:06;;;;;;;20.48;12.27;;;;;;;6.18;36.57;100335.87;4321337;33;34880;-79
2021/12/22 11:03:39;;;;;;;21.00;13.32;;;;;;;6.55;35.75;100341.09;4320116;33;33280;-84
2021/12/22 11:06:27;;;;;;;27.37;14.20;;;;;;;7.34;34.68;100336.13;4317716;33;33688;-81
2021/12/22 11:08:58;;;;;;;20.08;11.77;;;;;;;7.12;34.71;100329.13;4291168;33;33391;-85
2021/12/22 11:11:34;;;;;;;20.27;13.20;;;;;;;6.45;36.08;100332.06;4290946;33;33171;-83
2021/12/22 11:14:06;;;;;;;20.80;14.60;;;;;;;7.48;34.17;100324.72;4316384;33;34567;-81
2021/12/22 11:16:49;;;;;;;25.35;14.60;;;;;;;5.32;37.73;100329.81;4329439;33;33695;-80
2021/12/22 11:19:17;;;;;;;22.90;14.60;;;;;;;5.93;37.40;100323.47;4330816;33;34070;-80
2021/12/22 11:22:00;;;;;;;24.35;15.00;;;;;;;6.82;35.73;100324.34;4329975;33;34951;-81
2021/12/22 11:24:33;;;;;;;22.65;13.98;;;;;;;6.59;35.73;100322.37;4328022;33;33813;-81
2021/12/22 11:27:01;;;;;;;23.90;13.02;;;;;;;5.88;36.79;100325.78;4327740;33;34784;-80
2021/12/22 11:29:28;;;;;;;23.52;13.65;;;;;;;6.17;36.56;100314.38;4316108;33;33631;-80
2021/12/22 11:31:56;;;;;;;21.80;13.57;;;;;;;6.27;35.92;100319.16;4317981;33;35076;-81
2021/12/22 11:34:25;;;;;;;21.83;12.50;;;;;;;6.97;34.82;100305.22;4316879;33;33783;-81
2021/12/22 11:36:53;;;;;;;19.33;12.02;;;;;;;6.30;35.62;100319.31;4316834;33;33445;-86
2021/12/22 11:39:20;;;;;;;25.92;14.07;;;;;;;7.28;34.47;100303.22;4317271;33;35027;-80
2021/12/22 11:41:56;;;;;;;21.37;12.93;;;;;;;6.43;35.73;100304.44;4315292;33;34124;-85
2021/12/22 11:44:29;;;;;;;20.37;12.25;;;;;;;6.86;35.50;100304.75;4316797;33;33302;-81
2021/12/22 11:47:05;;;;;;;20.33;12.75;;;;;;;6.16;36.02;100311.72;4330364;33;33771;-80
2021/12/22 11:49:37;;;;;;;25.85;13.70;;;;;;;5.99;37.00;100309.22;4316610;33;35188;-79